Time;durP1;ratioP1;P1;durP2;ratioP2;P2;SDS_P1;SDS_P2;PMS_P1;PMS_P2;Temp;Humidity;BMP_temperature;BMP_pressure;BME280_temperature;BME280_humidity;BME280_pressure;Samples;Min_cycle;Max_cycle;Signal;HPM_P1;HPM_P2
2021/11/10 00:01:38;;;;;;;11.18;5.97;;;;;;;;;;5094034;28;20035;-71
2021/11/10 00:04:05;;;;;;;10.07;6.03;;;;;;;;;;5090610;28;20127;-71
2021/11/10 00:06:31;;;;;;;11.13;6.57;;;;;;;;;;5096434;28;20015;-70
2021/11/10 00:08:57;;;;;;;11.73;6.72;;;;;;;;;;5111651;28;20035;-71
2021/11/10 00:11:23;;;;;;;10.63;6.07;;;;;;;;;;5112213;28;20035;-70
2021/11/10 00:13:50;;;;;;;9.50;6.10;;;;;;;;;;5112158;28;20462;-71
2021/11/10 00:16:16;;;;;;;11.27;6.60;;;;;;;;;;5093870;28;20043;-70
2021/11/10 00:18:42;;;;;;;9.63;6.05;;;;;;;;;;5112007;28;20040;-70
2021/11/10 00:21:09;;;;;;;12.07;6.13;;;;;;;;;;5111810;28;20016;-71
2021/11/10 00:23:35;;;;;;;10.02;5.82;;;;;;;;;;5093622;28;20027;-71
2021/11/10 00:26:01;;;;;;;10.93;6.35;;;;;;;;;;5111079;28;20062;-70
2021/11/10 00:28:28;;;;;;;17.00;6.60;;;;;;;;;;5087356;28;20388;-70
2021/11/10 00:30:54;;;;;;;24.95;6.68;;;;;;;;;;5092068;28;20081;-70
2021/11/10 00:33:20;;;;;;;14.90;6.20;;;;;;;;;;5091726;28;20536;-70
2021/11/10 00:35:46;;;;;;;16.38;6.95;;;;;;;;;;5091963;28;20028;-71
2021/11/10 00:38:12;;;;;;;12.40;6.47;;;;;;;;;;5091726;28;20038;-72
2021/11/10 00:40:38;;;;;;;10.00;6.68;;;;;;;;;;5091953;28;20029;-71
2021/11/10 00:43:05;;;;;;;12.43;6.00;;;;;;;;;;5073613;28;20119;-71
2021/11/10 00:45:31;;;;;;;13.13;6.90;;;;;;;;;;5093227;28;20060;-72
2021/11/10 00:47:57;;;;;;;11.60;6.50;;;;;;;;;;5095664;28;20027;-71
2021/11/10 00:50:24;;;;;;;11.85;6.40;;;;;;;;;;5095900;28;20027;-72
2021/11/10 00:52:50;;;;;;;15.70;6.45;;;;;;;;;;5095844;28;20114;-69
2021/11/10 00:55:16;;;;;;;17.42;6.97;;;;;;;;;;5077327;28;20028;-70
2021/11/10 00:57:43;;;;;;;13.23;6.70;;;;;;;;;;5077284;28;20023;-74
2021/11/10 01:00:09;;;;;;;12.30;6.90;;;;;;;;;;5098952;28;20387;-74
2021/11/10 01:02:35;;;;;;;10.80;6.38;;;;;;;;;;5095469;28;20604;-74
2021/11/10 01:05:02;;;;;;;10.10;6.50;;;;;;;;;;5095487;28;20035;-74
2021/11/10 01:07:28;;;;;;;12.65;6.30;;;;;;;;;;5095295;28;20107;-74
2021/11/10 01:09:58;;;;;;;10.27;6.63;;;;;;;;;;5095520;28;20052;-74
2021/11/10 01:12:25;;;;;;;15.90;7.03;;;;;;;;;;5095495;28;20024;-74
2021/11/10 01:14:51;;;;;;;11.00;6.57;;;;;;;;;;5076930;28;20074;-74
2021/11/10 01:17:17;;;;;;;12.60;6.55;;;;;;;;;;5076996;28;20120;-74
2021/11/10 01:19:43;;;;;;;12.25;6.45;;;;;;;;;;5095248;28;20032;-74
2021/11/10 01:22:09;;;;;;;10.23;6.45;;;;;;;;;;5077106;28;20143;-74
2021/11/10 01:24:35;;;;;;;9.70;6.13;;;;;;;;;;5095177;28;20076;-74
2021/11/10 01:27:01;;;;;;;11.60;6.88;;;;;;;;;;5095140;28;20020;-74
2021/11/10 01:29:27;;;;;;;9.32;5.97;;;;;;;;;;5108111;28;20050;-74
2021/11/10 01:31:54;;;;;;;8.80;5.97;;;;;;;;;;5111783;28;20667;-74
2021/11/10 01:34:20;;;;;;;11.13;6.60;;;;;;;;;;5111688;28;20463;-74
2021/11/10 01:36:46;;;;;;;10.85;6.75;;;;;;;;;;5107899;27;20020;-71
2021/11/10 01:39:12;;;;;;;11.10;6.63;;;;;;;;;;5135510;27;20027;-70
2021/11/10 01:41:48;;;;;;;14.75;6.45;;;;;;;;;;5135610;27;20098;-71
2021/11/10 01:44:34;;;;;;;13.43;7.03;;;;;;;;;;5117429;27;20023;-71
2021/11/10 01:47:03;;;;;;;7.97;5.57;;;;;;;;;;5135608;27;20110;-71
2021/11/10 01:49:29;;;;;;;10.90;6.28;;;;;;;;;;5117189;27;20411;-71
2021/11/10 01:51:57;;;;;;;9.15;6.20;;;;;;;;;;5097605;28;20024;-72
2021/11/10 01:54:24;;;;;;;11.07;6.35;;;;;;;;;;5094600;28;20085;-71
2021/11/10 01:56:51;;;;;;;10.55;6.50;;;;;;;;;;5093050;28;20103;-71
2021/11/10 01:59:40;;;;;;;13.02;6.57;;;;;;;;;;5092682;28;20039;-70
2021/11/10 02:02:09;;;;;;;12.32;6.45;;;;;;;;;;5056219;28;20070;-69
2021/11/10 02:04:37;;;;;;;11.55;6.88;;;;;;;;;;5093925;28;20518;-69
2021/11/10 02:07:03;;;;;;;12.63;7.00;;;;;;;;;;5101298;28;20407;-70
2021/11/10 02:09:30;;;;;;;9.95;6.03;;;;;;;;;;5103119;28;20027;-70
2021/11/10 02:11:57;;;;;;;11.68;6.65;;;;;;;;;;5093917;28;20028;-72
2021/11/10 02:14:25;;;;;;;11.55;6.72;;;;;;;;;;5075929;28;20061;-72
2021/11/10 02:16:51;;;;;;;11.32;6.53;;;;;;;;;;5076043;28;20069;-69
2021/11/10 02:19:18;;;;;;;9.65;6.57;;;;;;;;;;5094052;28;20036;-70
2021/11/10 02:21:47;;;;;;;9.30;6.45;;;;;;;;;;5094024;28;20067;-69
2021/11/10 02:24:14;;;;;;;11.15;6.57;;;;;;;;;;5094187;28;20528;-69
2021/11/10 02:26:42;;;;;;;10.32;6.75;;;;;;;;;;5093946;28;20118;-70
2021/11/10 02:29:09;;;;;;;8.93;5.95;;;;;;;;;;5096406;28;20085;-70
2021/11/10 02:31:35;;;;;;;10.30;6.25;;;;;;;;;;5075638;28;20024;-70
2021/11/10 02:34:02;;;;;;;10.73;7.05;;;;;;;;;;5075508;28;20052;-68
2021/11/10 02:36:28;;;;;;;10.82;6.45;;;;;;;;;;5075553;28;20024;-68
2021/11/10 02:38:55;;;;;;;12.52;7.22;;;;;;;;;;5114173;28;20053;-69
2021/11/10 02:41:21;;;;;;;9.68;6.70;;;;;;;;;;5114007;28;20027;-68
2021/11/10 02:43:47;;;;;;;10.35;6.80;;;;;;;;;;5095757;28;20385;-69
2021/11/10 02:46:13;;;;;;;11.73;7.10;;;;;;;;;;5095711;28;20026;-68
2021/11/10 02:48:39;;;;;;;9.45;6.65;;;;;;;;;;5095455;28;20390;-68
2021/11/10 02:51:08;;;;;;;11.60;6.90;;;;;;;;;;5113665;28;20394;-69
2021/11/10 02:53:35;;;;;;;9.50;6.47;;;;;;;;;;5113734;28;20020;-69
2021/11/10 02:56:01;;;;;;;11.50;7.07;;;;;;;;;;5095324;28;20028;-68
2021/11/10 02:58:31;;;;;;;9.45;6.63;;;;;;;;;;5113464;28;20031;-74
2021/11/10 03:00:57;;;;;;;13.95;7.38;;;;;;;;;;5113575;28;20036;-73
2021/11/10 03:03:23;;;;;;;11.48;7.07;;;;;;;;;;5113347;28;20051;-74
2021/11/10 03:05:49;;;;;;;11.73;7.18;;;;;;;;;;5113445;28;20027;-74
2021/11/10 03:08:19;;;;;;;10.93;7.28;;;;;;;;;;5113209;28;20031;-71
2021/11/10 03:10:45;;;;;;;11.88;7.40;;;;;;;;;;5113621;28;20670;-70
2021/11/10 03:13:11;;;;;;;12.23;6.97;;;;;;;;;;5113381;28;20032;-70
2021/11/10 03:15:38;;;;;;;11.60;7.45;;;;;;;;;;5095057;28;20412;-70
2021/11/10 03:18:04;;;;;;;11.38;7.28;;;;;;;;;;5113262;28;20026;-71
2021/11/10 03:20:31;;;;;;;16.65;7.13;;;;;;;;;;5113324;28;20027;-70
2021/11/10 03:22:57;;;;;;;10.75;7.40;;;;;;;;;;5113163;28;20023;-71
2021/11/10 03:25:23;;;;;;;10.68;6.80;;;;;;;;;;5113120;28;20047;-71
2021/11/10 03:27:49;;;;;;;11.10;7.13;;;;;;;;;;5113125;28;20106;-71
2021/11/10 03:30:15;;;;;;;10.23;6.40;;;;;;;;;;5112952;28;20024;-72
2021/11/10 03:32:41;;;;;;;10.15;6.95;;;;;;;;;;5094637;28;20024;-72
2021/11/10 03:35:08;;;;;;;10.07;6.80;;;;;;;;;;5094744;28;20027;-72
2021/11/10 03:37:35;;;;;;;11.20;7.25;;;;;;;;;;5085170;28;20024;-72
2021/11/10 03:40:01;;;;;;;12.10;7.60;;;;;;;;;;5092602;28;20024;-71
2021/11/10 03:42:27;;;;;;;11.57;7.07;;;;;;;;;;5092649;28;20024;-73
2021/11/10 03:44:54;;;;;;;10.60;7.05;;;;;;;;;;5092787;28;20077;-70
2021/11/10 03:47:20;;;;;;;10.00;6.40;;;;;;;;;;5092375;28;20024;-68
2021/11/10 03:49:46;;;;;;;11.07;7.05;;;;;;;;;;5092549;28;20101;-70
2021/11/10 03:52:14;;;;;;;11.30;7.30;;;;;;;;;;5092588;28;20020;-71
2021/11/10 03:54:41;;;;;;;11.07;6.93;;;;;;;;;;5092400;28;20534;-71
2021/11/10 03:57:07;;;;;;;12.05;6.40;;;;;;;;;;5074270;28;20016;-72
2021/11/10 03:59:33;;;;;;;13.05;7.45;;;;;;;;;;5092437;28;20107;-72
2021/11/10 04:01:59;;;;;;;12.10;7.57;;;;;;;;;;5092491;28;20133;-72
2021/11/10 04:04:25;;;;;;;12.38;7.05;;;;;;;;;;5092291;28;20163;-74
2021/11/10 04:06:51;;;;;;;10.75;7.32;;;;;;;;;;5092162;28;20032;-72
2021/11/10 04:09:18;;;;;;;11.77;7.53;;;;;;;;;;5091963;28;20027;-72
2021/11/10 04:11:44;;;;;;;9.82;6.90;;;;;;;;;;5091979;28;20008;-72
2021/11/10 04:14:10;;;;;;;11.38;7.07;;;;;;;;;;5091873;28;20016;-72
2021/11/10 04:16:36;;;;;;;10.88;7.00;;;;;;;;;;5073654;28;20016;-72
2021/11/10 04:19:02;;;;;;;12.50;6.80;;;;;;;;;;5092113;28;20421;-71
2021/11/10 04:21:28;;;;;;;12.57;7.32;;;;;;;;;;5077160;28;20508;-71
2021/11/10 04:23:55;;;;;;;15.32;8.15;;;;;;;;;;5096217;28;20016;-73
2021/11/10 04:26:22;;;;;;;10.90;7.00;;;;;;;;;;5096118;28;20047;-73
2021/11/10 04:28:49;;;;;;;9.57;6.53;;;;;;;;;;5098792;28;20030;-72
2021/11/10 04:31:15;;;;;;;11.45;6.85;;;;;;;;;;5098468;28;20343;-73
2021/11/10 04:33:42;;;;;;;12.48;7.43;;;;;;;;;;5116425;28;20451;-72
2021/11/10 04:36:09;;;;;;;10.70;7.32;;;;;;;;;;5116536;28;20015;-72
2021/11/10 04:38:35;;;;;;;12.35;7.00;;;;;;;;;;5115837;28;20483;-67
2021/11/10 04:41:01;;;;;;;11.15;7.45;;;;;;;;;;5115721;28;20027;-67
2021/11/10 04:43:27;;;;;;;9.63;6.68;;;;;;;;;;5115549;28;20027;-71
2021/11/10 04:46:36;;;;;;;11.75;7.07;;;;;;;;;;5116317;28;20065;-72
2021/11/10 04:48:42;;;;;;;10.90;7.18;;;;;;;;;;5104997;28;20030;-71
2021/11/10 04:51:10;;;;;;;11.45;7.47;;;;;;;;;;5116174;28;20470;-71
2021/11/10 04:53:37;;;;;;;12.02;8.15;;;;;;;;;;5116136;28;20439;-71
2021/11/10 04:56:04;;;;;;;11.85;7.35;;;;;;;;;;5116134;28;20058;-72
2021/11/10 04:58:30;;;;;;;12.95;8.15;;;;;;;;;;5115989;28;20467;-71
2021/11/10 05:00:57;;;;;;;13.10;8.02;;;;;;;;;;5115776;28;20110;-72
2021/11/10 05:03:23;;;;;;;10.52;7.55;;;;;;;;;;5115902;28;20030;-72
2021/11/10 05:05:50;;;;;;;12.73;7.90;;;;;;;;;;5115923;28;20020;-71
2021/11/10 05:08:16;;;;;;;12.57;8.07;;;;;;;;;;5097664;28;20479;-71
2021/11/10 05:10:42;;;;;;;12.18;7.80;;;;;;;;;;5116112;28;20554;-72
2021/11/10 05:13:08;;;;;;;13.77;7.82;;;;;;;;;;5115825;28;20103;-71
2021/11/10 05:15:34;;;;;;;11.73;7.63;;;;;;;;;;5115527;28;20141;-71
2021/11/10 05:18:01;;;;;;;11.27;7.53;;;;;;;;;;5097190;28;20114;-72
2021/11/10 05:20:27;;;;;;;13.75;7.68;;;;;;;;;;5097393;28;20416;-73
2021/11/10 05:22:53;;;;;;;10.77;7.40;;;;;;;;;;5115433;28;20042;-76
2021/11/10 05:25:19;;;;;;;11.50;7.88;;;;;;;;;;5096981;28;20019;-75
2021/11/10 05:27:46;;;;;;;11.18;7.47;;;;;;;;;;5115234;28;20038;-75
2021/11/10 05:30:12;;;;;;;11.23;7.15;;;;;;;;;;5115605;28;20026;-76
2021/11/10 05:32:39;;;;;;;11.82;7.40;;;;;;;;;;5096678;28;20039;-75
2021/11/10 05:35:06;;;;;;;11.50;7.38;;;;;;;;;;5096842;28;20117;-71
2021/11/10 05:37:32;;;;;;;10.45;7.13;;;;;;;;;;5105949;28;20024;-70
2021/11/10 05:39:59;;;;;;;10.60;7.00;;;;;;;;;;5076498;28;20066;-70
2021/11/10 05:42:26;;;;;;;12.05;7.25;;;;;;;;;;5094801;28;20502;-71
2021/11/10 05:44:53;;;;;;;11.65;7.50;;;;;;;;;;5095014;28;20031;-71
2021/11/10 05:47:20;;;;;;;12.40;7.20;;;;;;;;;;5094678;28;20016;-71
2021/11/10 05:49:46;;;;;;;11.48;6.97;;;;;;;;;;5094609;28;20027;-71
2021/11/10 05:52:12;;;;;;;11.40;7.57;;;;;;;;;;5094600;28;20027;-71
2021/11/10 05:54:39;;;;;;;13.45;7.82;;;;;;;;;;5076480;28;20048;-70
2021/11/10 05:57:06;;;;;;;11.65;7.60;;;;;;;;;;5094620;28;20173;-71
2021/11/10 05:59:33;;;;;;;10.13;7.13;;;;;;;;;;5094384;28;20036;-71
2021/11/10 06:01:59;;;;;;;19.95;7.40;;;;;;;;;;5076415;28;20494;-72
2021/11/10 06:04:26;;;;;;;13.35;8.07;;;;;;;;;;5094552;28;20121;-72
2021/11/10 06:06:52;;;;;;;11.77;7.25;;;;;;;;;;5076259;28;20024;-69
2021/11/10 06:09:18;;;;;;;11.98;7.90;;;;;;;;;;5076366;28;20028;-70
2021/11/10 06:11:45;;;;;;;11.10;7.15;;;;;;;;;;5075636;28;20486;-70
2021/11/10 06:14:12;;;;;;;12.07;7.70;;;;;;;;;;5112782;28;20015;-70
2021/11/10 06:16:38;;;;;;;11.30;7.25;;;;;;;;;;5114267;28;20096;-70
2021/11/10 06:19:04;;;;;;;14.00;8.27;;;;;;;;;;5114092;28;20032;-70
2021/11/10 06:21:30;;;;;;;13.57;8.32;;;;;;;;;;5114224;28;20024;-70
2021/11/10 06:23:56;;;;;;;11.18;8.13;;;;;;;;;;5095772;28;20502;-70
2021/11/10 06:26:22;;;;;;;10.77;7.63;;;;;;;;;;5095861;28;20399;-71
2021/11/10 06:28:49;;;;;;;12.35;7.57;;;;;;;;;;5114150;28;20026;-71
2021/11/10 06:31:15;;;;;;;13.02;8.32;;;;;;;;;;5113834;28;20061;-71
2021/11/10 06:33:41;;;;;;;12.90;8.07;;;;;;;;;;5092078;28;20047;-71
2021/11/10 06:36:07;;;;;;;12.38;7.57;;;;;;;;;;5093533;28;20462;-72
2021/11/10 06:38:34;;;;;;;11.88;8.25;;;;;;;;;;5093492;28;20032;-70
2021/11/10 06:41:00;;;;;;;15.00;7.93;;;;;;;;;;5093771;28;20023;-72
2021/11/10 06:43:28;;;;;;;12.80;8.15;;;;;;;;;;5092914;28;20032;-72
2021/11/10 06:45:54;;;;;;;12.23;8.48;;;;;;;;;;5093768;28;20424;-72
2021/11/10 06:48:20;;;;;;;13.57;8.23;;;;;;;;;;5093325;28;20429;-71
2021/11/10 06:50:47;;;;;;;11.73;8.10;;;;;;;;;;5093511;28;20020;-71
2021/11/10 06:53:13;;;;;;;12.13;8.38;;;;;;;;;;5093362;28;20020;-71
2021/11/10 06:55:39;;;;;;;12.70;8.88;;;;;;;;;;5091506;28;20069;-71
2021/11/10 06:58:05;;;;;;;13.80;8.43;;;;;;;;;;5092645;28;20475;-71
2021/11/10 07:00:32;;;;;;;13.63;8.48;;;;;;;;;;5091548;28;20119;-71
2021/11/10 07:02:58;;;;;;;11.90;6.70;;;;;;;;;;5093116;28;20258;-70
2021/11/10 07:05:24;;;;;;;10.05;6.20;;;;;;;;;;5093093;28;20023;-70
2021/11/10 07:07:50;;;;;;;9.75;6.68;;;;;;;;;;5093023;28;20023;-71
2021/11/10 07:10:16;;;;;;;12.52;5.95;;;;;;;;;;5093019;28;20023;-71
2021/11/10 07:12:42;;;;;;;16.20;6.38;;;;;;;;;;5092584;28;20032;-72
2021/11/10 07:15:09;;;;;;;10.93;6.60;;;;;;;;;;5092359;28;20530;-72
2021/11/10 07:17:35;;;;;;;10.85;6.45;;;;;;;;;;5090958;28;20122;-73
2021/11/10 07:20:01;;;;;;;9.98;6.13;;;;;;;;;;5092217;28;20039;-69
2021/11/10 07:22:27;;;;;;;9.88;6.30;;;;;;;;;;5093005;28;20016;-72
2021/11/10 07:24:53;;;;;;;11.50;6.75;;;;;;;;;;5091589;28;20019;-74
2021/11/10 07:27:19;;;;;;;10.85;6.70;;;;;;;;;;5092858;28;20016;-74
2021/11/10 07:29:45;;;;;;;17.08;6.45;;;;;;;;;;5092580;28;20097;-78
2021/11/10 07:32:11;;;;;;;11.80;6.68;;;;;;;;;;5090930;28;20391;-77
2021/11/10 07:34:38;;;;;;;10.23;5.97;;;;;;;;;;5106545;28;20046;-77
2021/11/10 07:37:04;;;;;;;10.27;6.63;;;;;;;;;;5107689;28;20030;-77
2021/11/10 07:39:31;;;;;;;10.93;6.13;;;;;;;;;;5092534;28;20376;-76
2021/11/10 07:41:58;;;;;;;9.52;6.07;;;;;;;;;;5092619;28;20020;-74
2021/11/10 07:44:24;;;;;;;10.80;6.65;;;;;;;;;;5092545;28;20028;-74
2021/11/10 07:47:04;;;;;;;9.30;6.53;;;;;;;;;;5092464;28;20023;-68
2021/11/10 07:49:30;;;;;;;8.63;5.53;;;;;;;;;;5092474;28;20704;-67
2021/11/10 07:51:56;;;;;;;8.98;5.93;;;;;;;;;;5074340;28;20024;-67
2021/11/10 07:54:22;;;;;;;9.75;6.25;;;;;;;;;;5092319;28;20363;-67
2021/11/10 07:56:48;;;;;;;8.07;5.50;;;;;;;;;;5092203;28;20058;-70
2021/11/10 07:59:14;;;;;;;11.80;6.13;;;;;;;;;;5074132;28;20031;-70
2021/11/10 08:01:41;;;;;;;9.43;5.90;;;;;;;;;;5092236;28;20130;-71
2021/11/10 08:04:07;;;;;;;9.85;6.03;;;;;;;;;;5092291;28;20383;-71
2021/11/10 08:06:33;;;;;;;10.40;6.45;;;;;;;;;;5092134;28;20016;-72
2021/11/10 08:08:59;;;;;;;11.57;6.88;;;;;;;;;;5092130;28;20076;-72
2021/11/10 08:11:25;;;;;;;11.93;6.55;;;;;;;;;;5092333;28;20028;-71
2021/11/10 08:13:52;;;;;;;10.48;6.43;;;;;;;;;;5096132;28;20089;-71
2021/11/10 08:16:18;;;;;;;12.85;7.18;;;;;;;;;;5107879;28;20024;-72
2021/11/10 08:18:44;;;;;;;11.25;6.70;;;;;;;;;;5091915;28;20035;-71
2021/11/10 08:21:10;;;;;;;18.00;7.05;;;;;;;;;;5091970;28;20089;-71
2021/11/10 08:23:37;;;;;;;10.27;6.70;;;;;;;;;;5107614;28;20498;-71
2021/11/10 08:26:03;;;;;;;10.07;6.05;;;;;;;;;;5091787;28;20106;-71
2021/11/10 08:28:30;;;;;;;214.65;14.77;;;;;;;;;;5092204;28;20332;-73
2021/11/10 08:30:56;;;;;;;28.38;8.02;;;;;;;;;;5091871;28;20016;-73
2021/11/10 08:33:22;;;;;;;24.73;8.02;;;;;;;;;;5091688;28;20115;-73
2021/11/10 08:35:49;;;;;;;22.77;6.80;;;;;;;;;;5107725;28;20699;-73
2021/11/10 08:38:16;;;;;;;12.85;7.00;;;;;;;;;;5106653;28;20028;-73
2021/11/10 08:40:42;;;;;;;10.82;6.47;;;;;;;;;;5112296;28;20035;-74
2021/11/10 08:43:11;;;;;;;16.38;6.43;;;;;;;;;;5111970;28;20038;-74
2021/11/10 08:45:38;;;;;;;15.85;7.82;;;;;;;;;;5093655;28;20126;-73
2021/11/10 08:48:05;;;;;;;14.98;6.50;;;;;;;;;;5093922;28;20036;-73
2021/11/10 08:50:32;;;;;;;11.75;6.70;;;;;;;;;;5093853;28;20028;-73
2021/11/10 08:52:58;;;;;;;15.15;7.40;;;;;;;;;;5093833;28;20020;-73
2021/11/10 08:55:25;;;;;;;10.52;6.47;;;;;;;;;;5112246;28;20027;-73
2021/11/10 08:57:52;;;;;;;13.30;7.53;;;;;;;;;;5112010;28;20020;-73
2021/11/10 09:00:20;;;;;;;11.85;6.97;;;;;;;;;;5093468;28;20032;-74
2021/11/10 09:02:47;;;;;;;12.95;6.35;;;;;;;;;;5111986;28;20018;-74
2021/11/10 09:05:13;;;;;;;13.25;6.75;;;;;;;;;;5112031;28;20053;-72
2021/11/10 09:07:39;;;;;;;11.02;7.22;;;;;;;;;;5096996;28;20440;-72
2021/11/10 09:10:06;;;;;;;9.95;6.25;;;;;;;;;;5115801;28;20046;-73
2021/11/10 09:12:32;;;;;;;11.88;6.85;;;;;;;;;;5097413;28;20137;-73
2021/11/10 09:14:59;;;;;;;9.52;6.22;;;;;;;;;;5115706;28;20043;-72
2021/11/10 09:17:26;;;;;;;11.23;7.28;;;;;;;;;;5115072;28;20035;-71
2021/11/10 09:19:52;;;;;;;9.27;5.97;;;;;;;;;;5115687;28;20062;-71
2021/11/10 09:22:18;;;;;;;13.43;6.63;;;;;;;;;;5108839;28;20064;-72
2021/11/10 09:24:44;;;;;;;10.23;6.00;;;;;;;;;;5115280;28;20027;-72
2021/11/10 09:27:10;;;;;;;12.20;5.13;;;;;;;;;;5115227;28;20015;-71
2021/11/10 09:29:37;;;;;;;10.77;6.63;;;;;;;;;;5097140;28;20030;-73
2021/11/10 09:32:04;;;;;;;9.73;5.70;;;;;;;;;;5115569;28;20228;-72
2021/11/10 09:34:30;;;;;;;12.05;6.68;;;;;;;;;;5115291;28;20507;-72
2021/11/10 09:36:56;;;;;;;9.20;6.25;;;;;;;;;;5115097;28;20027;-73
2021/11/10 09:39:24;;;;;;;9.80;5.82;;;;;;;;;;5115177;28;20568;-73
2021/11/10 09:41:52;;;;;;;10.98;6.30;;;;;;;;;;5115265;28;20020;-73
2021/11/10 09:44:19;;;;;;;10.00;6.53;;;;;;;;;;5097133;28;20627;-73
2021/11/10 09:46:46;;;;;;;10.18;6.07;;;;;;;;;;5115207;28;20016;-72
2021/11/10 09:49:13;;;;;;;10.23;6.80;;;;;;;;;;5115305;28;20031;-72
2021/11/10 09:51:40;;;;;;;11.57;7.15;;;;;;;;;;5096619;28;20019;-72
2021/11/10 09:54:07;;;;;;;10.52;5.63;;;;;;;;;;5115149;28;20467;-72
2021/11/10 09:56:34;;;;;;;15.30;7.32;;;;;;;;;;5096526;28;20042;-72
2021/11/10 09:59:00;;;;;;;11.18;6.72;;;;;;;;;;5114859;28;20031;-72
2021/11/10 10:01:26;;;;;;;9.35;6.20;;;;;;;;;;5114633;28;20030;-73
2021/11/10 10:03:53;;;;;;;10.77;6.30;;;;;;;;;;5114869;28;20498;-72
2021/11/10 10:06:20;;;;;;;10.57;6.05;;;;;;;;;;5114734;28;20415;-73
2021/11/10 10:08:49;;;;;;;9.90;6.32;;;;;;;;;;5106449;28;20077;-72
2021/11/10 10:11:16;;;;;;;11.35;6.60;;;;;;;;;;5093923;28;20028;-72
2021/11/10 10:13:42;;;;;;;16.02;7.30;;;;;;;;;;5076108;28;20072;-73
2021/11/10 10:16:09;;;;;;;11.27;7.35;;;;;;;;;;5094240;28;20379;-73
2021/11/10 10:18:36;;;;;;;11.05;6.38;;;;;;;;;;5092864;28;20026;-72
2021/11/10 10:21:02;;;;;;;10.48;7.13;;;;;;;;;;5093818;28;20113;-73
2021/11/10 10:23:29;;;;;;;11.55;5.55;;;;;;;;;;5093770;28;20024;-72
2021/11/10 10:26:02;;;;;;;13.85;7.60;;;;;;;;;;5093470;28;20016;-72
2021/11/10 10:28:29;;;;;;;11.90;5.90;;;;;;;;;;5075410;28;20028;-73
2021/11/10 10:30:55;;;;;;;10.30;6.97;;;;;;;;;;5093558;28;20096;-72
2021/11/10 10:33:23;;;;;;;11.43;6.70;;;;;;;;;;5093325;28;20045;-73
2021/11/10 10:35:52;;;;;;;10.05;6.28;;;;;;;;;;5093493;28;20104;-73
2021/11/10 10:38:20;;;;;;;9.70;6.35;;;;;;;;;;5093213;28;20016;-73
2021/11/10 10:40:47;;;;;;;9.30;5.75;;;;;;;;;;5093503;28;20032;-74
2021/11/10 10:43:15;;;;;;;10.05;7.07;;;;;;;;;;5093504;28;20606;-73
2021/11/10 10:45:41;;;;;;;11.98;6.18;;;;;;;;;;5093443;28;20035;-73
2021/11/10 10:48:12;;;;;;;11.85;6.88;;;;;;;;;;5093485;28;20538;-73
2021/11/10 10:50:43;;;;;;;9.32;6.40;;;;;;;;;;5093460;28;20059;-73
2021/11/10 10:53:11;;;;;;;9.32;6.05;;;;;;;;;;5075266;28;20024;-74
2021/11/10 10:55:38;;;;;;;11.77;7.40;;;;;;;;;;5075230;28;20024;-74
2021/11/10 10:58:06;;;;;;;14.93;6.60;;;;;;;;;;5075236;28;20031;-74
2021/11/10 11:00:33;;;;;;;8.98;6.55;;;;;;;;;;5093335;28;20032;-74
2021/11/10 11:03:24;;;;;;;10.32;6.65;;;;;;;;;;5093140;28;20028;-74
2021/11/10 11:05:50;;;;;;;10.20;6.28;;;;;;;;;;5087731;28;20629;-74
2021/11/10 11:08:29;;;;;;;10.20;6.82;;;;;;;;;;5092953;28;20036;-74
2021/11/10 11:10:56;;;;;;;10.20;6.70;;;;;;;;;;5092957;28;20027;-73
2021/11/10 11:13:27;;;;;;;9.25;6.38;;;;;;;;;;5092909;28;20031;-73
2021/11/10 11:15:58;;;;;;;8.90;5.95;;;;;;;;;;5092891;28;20024;-73
2021/11/10 11:18:25;;;;;;;8.35;5.93;;;;;;;;;;5075038;28;20492;-73
2021/11/10 11:20:51;;;;;;;9.18;6.65;;;;;;;;;;5093009;28;20032;-72
2021/11/10 11:23:17;;;;;;;9.88;6.60;;;;;;;;;;5075231;28;20027;-72
2021/11/10 11:25:44;;;;;;;11.13;6.88;;;;;;;;;;5093049;28;20536;-73
2021/11/10 11:28:14;;;;;;;9.60;6.18;;;;;;;;;;5093061;28;20088;-73
2021/11/10 11:30:45;;;;;;;8.93;6.40;;;;;;;;;;5108347;28;20130;-73
2021/11/10 11:33:13;;;;;;;10.68;7.00;;;;;;;;;;5092620;28;20021;-73
2021/11/10 11:35:40;;;;;;;8.57;6.10;;;;;;;;;;5108443;28;20089;-73
2021/11/10 11:38:08;;;;;;;10.45;7.05;;;;;;;;;;5106428;28;20050;-72
2021/11/10 11:40:34;;;;;;;9.40;6.85;;;;;;;;;;5113102;28;20536;-74
2021/11/10 11:43:02;;;;;;;12.13;7.03;;;;;;;;;;5113121;28;20020;-74
2021/11/10 11:45:30;;;;;;;10.02;6.38;;;;;;;;;;5094530;28;20099;-73
2021/11/10 11:47:57;;;;;;;11.95;7.15;;;;;;;;;;5094712;28;20024;-74
2021/11/10 11:50:24;;;;;;;9.82;6.57;;;;;;;;;;5112775;28;20468;-73
2021/11/10 11:52:50;;;;;;;10.18;6.45;;;;;;;;;;5094598;28;20474;-73
2021/11/10 11:55:22;;;;;;;9.88;6.40;;;;;;;;;;5094348;28;20027;-73
2021/11/10 11:58:09;;;;;;;8.70;6.50;;;;;;;;;;5112670;28;20482;-74
2021/11/10 12:00:35;;;;;;;10.73;6.47;;;;;;;;;;5112406;28;20322;-72
2021/11/10 12:03:02;;;;;;;9.63;6.50;;;;;;;;;;5112658;28;20015;-75
2021/11/10 12:05:28;;;;;;;10.73;7.13;;;;;;;;;;5112499;28;20019;-73
2021/11/10 12:07:56;;;;;;;11.00;6.70;;;;;;;;;;5112614;28;20032;-73
2021/11/10 12:10:22;;;;;;;10.48;7.40;;;;;;;;;;5094287;28;20064;-73
2021/11/10 12:12:52;;;;;;;9.88;6.55;;;;;;;;;;5112473;28;20420;-72
2021/11/10 12:15:18;;;;;;;9.50;6.00;;;;;;;;;;5112406;28;20020;-73
2021/11/10 12:18:02;;;;;;;10.77;7.43;;;;;;;;;;5112445;28;20391;-72
2021/11/10 12:20:38;;;;;;;11.90;7.50;;;;;;;;;;5112262;28;20039;-72
2021/11/10 12:23:05;;;;;;;10.00;6.88;;;;;;;;;;5105820;28;20028;-74
2021/11/10 12:25:31;;;;;;;9.73;6.53;;;;;;;;;;5112285;28;20545;-73
2021/11/10 12:27:58;;;;;;;10.07;6.13;;;;;;;;;;5112384;28;20599;-73
2021/11/10 12:30:28;;;;;;;9.40;6.40;;;;;;;;;;5112246;28;20518;-72
2021/11/10 12:33:00;;;;;;;9.00;6.20;;;;;;;;;;5094103;28;20057;-73
2021/11/10 12:35:27;;;;;;;8.93;5.22;;;;;;;;;;5093831;28;20051;-73
2021/11/10 12:37:54;;;;;;;9.90;6.30;;;;;;;;;;5112024;28;20044;-72
2021/11/10 12:40:23;;;;;;;10.07;6.32;;;;;;;;;;5112274;28;20598;-71
2021/11/10 12:42:57;;;;;;;12.98;6.38;;;;;;;;;;5115952;28;20034;-72
2021/11/10 12:45:27;;;;;;;14.38;6.65;;;;;;;;;;5116097;28;20031;-72
2021/11/10 12:47:54;;;;;;;15.32;6.60;;;;;;;;;;5117167;28;20023;-71
2021/11/10 12:50:23;;;;;;;17.98;8.15;;;;;;;;;;5097950;28;20378;-72
2021/11/10 12:52:49;;;;;;;14.50;5.95;;;;;;;;;;5097791;28;20096;-70
2021/11/10 12:55:17;;;;;;;15.30;6.40;;;;;;;;;;5097606;28;20023;-72
2021/11/10 12:57:43;;;;;;;12.25;6.07;;;;;;;;;;5115966;28;20050;-71
2021/11/10 13:00:14;;;;;;;12.10;5.93;;;;;;;;;;5116052;28;20201;-71
2021/11/10 13:02:40;;;;;;;10.90;6.60;;;;;;;;;;5115864;28;20016;-72
2021/11/10 13:05:08;;;;;;;13.82;6.07;;;;;;;;;;5097696;28;20023;-72
2021/11/10 13:07:36;;;;;;;11.45;6.20;;;;;;;;;;5115826;28;20039;-72
2021/11/10 13:10:05;;;;;;;14.45;5.75;;;;;;;;;;5097715;28;20027;-72
2021/11/10 13:12:32;;;;;;;13.05;5.70;;;;;;;;;;5116020;28;20076;-72
2021/11/10 13:14:58;;;;;;;15.57;5.97;;;;;;;;;;5097423;28;20023;-72
2021/11/10 13:17:32;;;;;;;12.82;5.80;;;;;;;;;;5097373;28;20390;-72
2021/11/10 13:20:06;;;;;;;10.88;5.93;;;;;;;;;;5115416;28;20114;-72
2021/11/10 13:22:36;;;;;;;10.20;6.10;;;;;;;;;;5097132;28;20488;-72
2021/11/10 13:25:10;;;;;;;11.43;5.70;;;;;;;;;;5115684;28;20016;-71
2021/11/10 13:27:41;;;;;;;8.30;5.28;;;;;;;;;;5115665;28;20020;-71
2021/11/10 13:30:08;;;;;;;8.75;5.40;;;;;;;;;;5115653;28;20024;-71
2021/11/10 13:32:39;;;;;;;10.13;5.80;;;;;;;;;;5115473;28;20016;-71
2021/11/10 13:35:05;;;;;;;8.60;4.60;;;;;;;;;;5096896;28;20478;-71
2021/11/10 13:37:40;;;;;;;9.13;5.50;;;;;;;;;;5097151;28;20024;-71
2021/11/10 13:40:06;;;;;;;8.40;4.40;;;;;;;;;;5115232;28;20032;-71
2021/11/10 13:42:33;;;;;;;9.60;5.13;;;;;;;;;;5115306;28;20023;-72
2021/11/10 13:45:06;;;;;;;11.80;5.30;;;;;;;;;;5115371;28;20072;-72
2021/11/10 13:47:32;;;;;;;9.68;5.32;;;;;;;;;;5115224;28;20027;-72
2021/11/10 13:49:58;;;;;;;8.52;5.32;;;;;;;;;;5115197;28;20020;-72
2021/11/10 13:52:25;;;;;;;8.98;5.20;;;;;;;;;;5114707;28;20024;-71
2021/11/10 13:54:51;;;;;;;9.95;5.05;;;;;;;;;;5096933;28;20026;-72
2021/11/10 13:57:17;;;;;;;7.95;4.88;;;;;;;;;;5114939;28;20422;-71
2021/11/10 13:59:45;;;;;;;9.82;4.85;;;;;;;;;;5114932;28;20032;-71
2021/11/10 14:02:13;;;;;;;11.38;5.35;;;;;;;;;;5114946;28;20024;-71
2021/11/10 14:04:40;;;;;;;8.20;5.20;;;;;;;;;;5115021;28;20041;-71
2021/11/10 14:07:08;;;;;;;11.23;4.57;;;;;;;;;;5114815;28;20016;-71
2021/11/10 14:09:44;;;;;;;7.53;4.55;;;;;;;;;;5114578;28;20051;-71
2021/11/10 14:12:25;;;;;;;8.85;4.53;;;;;;;;;;5096409;28;20440;-72
2021/11/10 14:14:56;;;;;;;8.77;5.00;;;;;;;;;;5114529;28;20035;-72
2021/11/10 14:17:23;;;;;;;9.98;5.47;;;;;;;;;;5114444;28;20045;-72
2021/11/10 14:19:57;;;;;;;8.85;5.50;;;;;;;;;;5114452;28;20390;-72
2021/11/10 14:22:24;;;;;;;7.82;4.35;;;;;;;;;;5093331;28;20482;-72
2021/11/10 14:24:50;;;;;;;8.43;5.38;;;;;;;;;;5076049;28;20012;-72
2021/11/10 14:27:17;;;;;;;8.57;5.07;;;;;;;;;;5094023;28;20016;-73
2021/11/10 14:29:43;;;;;;;9.25;5.80;;;;;;;;;;5093337;28;20491;-71
2021/11/10 14:32:09;;;;;;;8.70;4.53;;;;;;;;;;5104326;28;20168;-72
2021/11/10 14:34:36;;;;;;;8.85;4.93;;;;;;;;;;5075890;28;20051;-74